sensor_id;sensor_type;location;lat;lon;timestamp;temperature;humidity
23669;DHT22;12011;47.422;15.018;2023-07-13T00:02:31;15.00;99.90
23669;DHT22;12011;47.422;15.018;2023-07-13T00:05:02;15.10;99.90
23669;DHT22;12011;47.422;15.018;2023-07-13T00:07:32;15.10;99.90
23669;DHT22;12011;47.422;15.018;2023-07-13T00:10:06;15.10;99.90
23669;DHT22;12011;47.422;15.018;2023-07-13T00:12:38;15.10;99.90
23669;DHT22;12011;47.422;15.018;2023-07-13T00:15:14;15.10;99.90
23669;DHT22;12011;47.422;15.018;2023-07-13T00:17:47;15.10;99.90
23669;DHT22;12011;47.422;15.018;2023-07-13T00:20:17;15.10;99.90
23669;DHT22;12011;47.422;15.018;2023-07-13T00:22:47;15.10;99.90
23669;DHT22;12011;47.422;15.018;2023-07-13T00:25:39;15.10;99.90
23669;DHT22;12011;47.422;15.018;2023-07-13T00:28:34;15.10;99.90
23669;DHT22;12011;47.422;15.018;2023-07-13T00:31:04;15.20;99.90
23669;DHT22;12011;47.422;15.018;2023-07-13T00:33:34;15.20;99.90
23669;DHT22;12011;47.422;15.018;2023-07-13T00:36:04;15.20;99.90
23669;DHT22;12011;47.422;15.018;2023-07-13T00:38:34;15.20;99.90
23669;DHT22;12011;47.422;15.018;2023-07-13T00:41:06;15.20;99.90
23669;DHT22;12011;47.422;15.018;2023-07-13T00:43:36;15.20;99.90
23669;DHT22;12011;47.422;15.018;2023-07-13T00:46:20;15.20;99.90
23669;DHT22;12011;47.422;15.018;2023-07-13T00:48:53;15.20;99.90
23669;DHT22;12011;47.422;15.018;2023-07-13T00:51:30;15.20;99.90
23669;DHT22;12011;47.422;15.018;2023-07-13T00:54:07;15.20;99.90
23669;DHT22;12011;47.422;15.018;2023-07-13T00:56:44;15.20;99.90
23669;DHT22;12011;47.422;15.018;2023-07-13T00:59:17;15.20;99.90
23669;DHT22;12011;47.422;15.018;2023-07-13T01:01:47;15.30;99.90
23669;DHT22;12011;47.422;15.018;2023-07-13T01:04:18;15.20;99.90
23669;DHT22;12011;47.422;15.018;2023-07-13T01:06:47;15.20;99.90
23669;DHT22;12011;47.422;15.018;2023-07-13T01:09:17;15.20;99.90
23669;DHT22;12011;47.422;15.018;2023-07-13T01:11:50;15.20;99.90
23669;DHT22;12011;47.422;15.018;2023-07-13T01:14:20;15.20;99.90
23669;DHT22;12011;47.422;15.018;2023-07-13T01:16:50;15.10;99.90
23669;DHT22;12011;47.422;15.018;2023-07-13T01:19:33;15.10;99.90
23669;DHT22;12011;47.422;15.018;2023-07-13T01:22:10;15.10;99.90
23669;DHT22;12011;47.422;15.018;2023-07-13T01:24:44;15.10;99.90
23669;DHT22;12011;47.422;15.018;2023-07-13T01:27:20;15.10;99.90
23669;DHT22;12011;47.422;15.018;2023-07-13T01:29:52;15.10;99.90
23669;DHT22;12011;47.422;15.018;2023-07-13T01:32:31;15.10;99.90
23669;DHT22;12011;47.422;15.018;2023-07-13T01:35:00;15.10;99.90
23669;DHT22;12011;47.422;15.018;2023-07-13T01:37:32;15.20;99.90
23669;DHT22;12011;47.422;15.018;2023-07-13T01:40:02;15.20;99.90
23669;DHT22;12011;47.422;15.018;2023-07-13T01:42:32;15.20;99.90
23669;DHT22;12011;47.422;15.018;2023-07-13T01:45:01;15.30;99.90
23669;DHT22;12011;47.422;15.018;2023-07-13T01:47:31;15.30;99.90
23669;DHT22;12011;47.422;15.018;2023-07-13T01:50:01;15.30;99.90
23669;DHT22;12011;47.422;15.018;2023-07-13T01:52:33;15.30;99.90
23669;DHT22;12011;47.422;15.018;2023-07-13T01:55:03;15.30;99.90
23669;DHT22;12011;47.422;15.018;2023-07-13T01:57:34;15.30;99.90
23669;DHT22;12011;47.422;15.018;2023-07-13T02:00:06;15.30;99.90
23669;DHT22;12011;47.422;15.018;2023-07-13T02:02:46;15.30;99.90
23669;DHT22;12011;47.422;15.018;2023-07-13T02:05:16;15.40;99.90
23669;DHT22;12011;47.422;15.018;2023-07-13T02:07:50;15.40;99.90
23669;DHT22;12011;47.422;15.018;2023-07-13T02:10:19;15.30;99.90
23669;DHT22;12011;47.422;15.018;2023-07-13T02:12:50;15.30;99.90
23669;DHT22;12011;47.422;15.018;2023-07-13T02:15:20;15.30;99.90
23669;DHT22;12011;47.422;15.018;2023-07-13T02:17:49;15.30;99.90
23669;DHT22;12011;47.422;15.018;2023-07-13T02:20:19;15.40;99.90
23669;DHT22;12011;47.422;15.018;2023-07-13T02:22:51;15.30;99.90
23669;DHT22;12011;47.422;15.018;2023-07-13T02:25:21;15.40;99.90
23669;DHT22;12011;47.422;15.018;2023-07-13T02:27:51;15.30;99.90
23669;DHT22;12011;47.422;15.018;2023-07-13T02:30:20;15.30;99.90
23669;DHT22;12011;47.422;15.018;2023-07-13T02:32:54;15.30;99.90
23669;DHT22;12011;47.422;15.018;2023-07-13T02:35:23;15.30;99.90
23669;DHT22;12011;47.422;15.018;2023-07-13T02:37:58;15.30;99.90
23669;DHT22;12011;47.422;15.018;2023-07-13T02:40:27;15.30;99.90
23669;DHT22;12011;47.422;15.018;2023-07-13T02:42:59;15.30;99.90
23669;DHT22;12011;47.422;15.018;2023-07-13T02:45:31;15.30;99.90
23669;DHT22;12011;47.422;15.018;2023-07-13T02:48:01;15.30;99.90
23669;DHT22;12011;47.422;15.018;2023-07-13T02:50:30;15.20;99.90
23669;DHT22;12011;47.422;15.018;2023-07-13T02:53:03;15.30;99.90
23669;DHT22;12011;47.422;15.018;2023-07-13T02:55:32;15.30;99.90
23669;DHT22;12011;47.422;15.018;2023-07-13T02:58:02;15.30;99.90
23669;DHT22;12011;47.422;15.018;2023-07-13T03:00:32;15.30;99.90
23669;DHT22;12011;47.422;15.018;2023-07-13T03:03:01;15.40;99.90
23669;DHT22;12011;47.422;15.018;2023-07-13T03:05:31;15.40;99.90
23669;DHT22;12011;47.422;15.018;2023-07-13T03:08:03;15.50;99.90
23669;DHT22;12011;47.422;15.018;2023-07-13T03:10:34;15.60;99.90
23669;DHT22;12011;47.422;15.018;2023-07-13T03:13:05;15.60;99.90
23669;DHT22;12011;47.422;15.018;2023-07-13T03:15:35;15.60;99.90
23669;DHT22;12011;47.422;15.018;2023-07-13T03:18:05;15.60;99.90
23669;DHT22;12011;47.422;15.018;2023-07-13T03:20:35;15.60;99.90
23669;DHT22;12011;47.422;15.018;2023-07-13T03:23:07;15.60;99.90
23669;DHT22;12011;47.422;15.018;2023-07-13T03:25:37;15.60;99.90
23669;DHT22;12011;47.422;15.018;2023-07-13T03:28:07;15.60;99.90
23669;DHT22;12011;47.422;15.018;2023-07-13T03:30:37;15.60;99.90
23669;DHT22;12011;47.422;15.018;2023-07-13T03:33:07;15.50;99.90
23669;DHT22;12011;47.422;15.018;2023-07-13T03:35:41;15.50;99.90
23669;DHT22;12011;47.422;15.018;2023-07-13T03:38:13;15.50;99.90
23669;DHT22;12011;47.422;15.018;2023-07-13T03:40:43;15.50;99.90
23669;DHT22;12011;47.422;15.018;2023-07-13T03:43:12;15.50;99.90
23669;DHT22;12011;47.422;15.018;2023-07-13T03:45:42;15.50;99.90
23669;DHT22;12011;47.422;15.018;2023-07-13T03:48:12;15.60;99.90
23669;DHT22;12011;47.422;15.018;2023-07-13T03:50:41;15.60;99.90
23669;DHT22;12011;47.422;15.018;2023-07-13T03:53:14;15.60;99.90
23669;DHT22;12011;47.422;15.018;2023-07-13T03:55:45;15.50;99.90
23669;DHT22;12011;47.422;15.018;2023-07-13T03:58:30;15.50;99.90
23669;DHT22;12011;47.422;15.018;2023-07-13T04:01:11;15.50;99.90
23669;DHT22;12011;47.422;15.018;2023-07-13T04:03:42;15.60;99.90
23669;DHT22;12011;47.422;15.018;2023-07-13T04:06:16;15.60;99.90
23669;DHT22;12011;47.422;15.018;2023-07-13T04:08:54;15.60;99.90
23669;DHT22;12011;47.422;15.018;2023-07-13T04:11:28;15.50;99.90
23669;DHT22;12011;47.422;15.018;2023-07-13T04:14:00;15.50;99.90
23669;DHT22;12011;47.422;15.018;2023-07-13T04:16:29;15.50;99.90
23669;DHT22;12011;47.422;15.018;2023-07-13T04:18:59;15.60;99.90
23669;DHT22;12011;47.422;15.018;2023-07-13T04:21:30;15.60;99.90
23669;DHT22;12011;47.422;15.018;2023-07-13T04:24:03;15.70;99.90
23669;DHT22;12011;47.422;15.018;2023-07-13T04:26:34;15.80;99.90
23669;DHT22;12011;47.422;15.018;2023-07-13T04:29:05;15.80;99.90
23669;DHT22;12011;47.422;15.018;2023-07-13T04:31:34;15.80;99.90
23669;DHT22;12011;47.422;15.018;2023-07-13T04:34:04;15.80;99.90
23669;DHT22;12011;47.422;15.018;2023-07-13T04:36:34;15.90;99.90
23669;DHT22;12011;47.422;15.018;2023-07-13T04:39:08;15.90;99.90
23669;DHT22;12011;47.422;15.018;2023-07-13T04:41:37;15.90;99.90
23669;DHT22;12011;47.422;15.018;2023-07-13T04:44:07;16.00;99.90
23669;DHT22;12011;47.422;15.018;2023-07-13T04:46:37;15.90;99.90
23669;DHT22;12011;47.422;15.018;2023-07-13T04:49:07;16.00;99.90
23669;DHT22;12011;47.422;15.018;2023-07-13T04:51:36;16.10;99.90
23669;DHT22;12011;47.422;15.018;2023-07-13T04:54:09;16.20;99.90
23669;DHT22;12011;47.422;15.018;2023-07-13T04:56:38;16.20;99.90
23669;DHT22;12011;47.422;15.018;2023-07-13T04:59:08;16.30;99.90
23669;DHT22;12011;47.422;15.018;2023-07-13T05:01:37;16.30;99.90
23669;DHT22;12011;47.422;15.018;2023-07-13T05:04:07;16.20;99.90
23669;DHT22;12011;47.422;15.018;2023-07-13T05:06:37;16.30;99.90
23669;DHT22;12011;47.422;15.018;2023-07-13T05:09:09;16.40;99.90
23669;DHT22;12011;47.422;15.018;2023-07-13T05:11:38;16.50;99.90
23669;DHT22;12011;47.422;15.018;2023-07-13T05:14:08;16.60;99.90
23669;DHT22;12011;47.422;15.018;2023-07-13T05:16:38;16.70;99.90
23669;DHT22;12011;47.422;15.018;2023-07-13T05:19:08;17.50;99.90
23669;DHT22;12011;47.422;15.018;2023-07-13T05:21:38;17.50;99.90
23669;DHT22;12011;47.422;15.018;2023-07-13T05:24:10;17.40;99.90
23669;DHT22;12011;47.422;15.018;2023-07-13T05:26:43;17.40;99.90
23669;DHT22;12011;47.422;15.018;2023-07-13T05:29:12;17.40;99.90
23669;DHT22;12011;47.422;15.018;2023-07-13T05:31:42;17.60;99.90
23669;DHT22;12011;47.422;15.018;2023-07-13T05:34:11;17.80;99.90
23669;DHT22;12011;47.422;15.018;2023-07-13T05:36:41;19.30;99.90
23669;DHT22;12011;47.422;15.018;2023-07-13T05:39:16;20.70;99.90
23669;DHT22;12011;47.422;15.018;2023-07-13T05:41:46;21.80;98.50
23669;DHT22;12011;47.422;15.018;2023-07-13T05:46:45;23.70;94.60
23669;DHT22;12011;47.422;15.018;2023-07-13T05:49:15;24.40;92.30
23669;DHT22;12011;47.422;15.018;2023-07-13T05:51:45;25.10;91.00
23669;DHT22;12011;47.422;15.018;2023-07-13T05:54:17;25.20;81.40
23669;DHT22;12011;47.422;15.018;2023-07-13T05:56:46;25.70;83.40
23669;DHT22;12011;47.422;15.018;2023-07-13T05:59:17;25.10;82.20
23669;DHT22;12011;47.422;15.018;2023-07-13T06:01:46;24.10;89.70
23669;DHT22;12011;47.422;15.018;2023-07-13T06:04:18;23.20;90.80
23669;DHT22;12011;47.422;15.018;2023-07-13T06:06:48;23.30;92.50
23669;DHT22;12011;47.422;15.018;2023-07-13T06:09:20;24.20;87.30
23669;DHT22;12011;47.422;15.018;2023-07-13T06:11:50;25.30;86.80
23669;DHT22;12011;47.422;15.018;2023-07-13T06:14:19;26.10;77.00
23669;DHT22;12011;47.422;15.018;2023-07-13T06:16:49;25.60;74.40
23669;DHT22;12011;47.422;15.018;2023-07-13T06:19:18;25.30;76.20
23669;DHT22;12011;47.422;15.018;2023-07-13T06:21:48;24.90;71.60
23669;DHT22;12011;47.422;15.018;2023-07-13T06:24:20;25.90;74.80
23669;DHT22;12011;47.422;15.018;2023-07-13T06:26:50;26.70;65.50
23669;DHT22;12011;47.422;15.018;2023-07-13T06:29:20;27.30;66.50
23669;DHT22;12011;47.422;15.018;2023-07-13T06:31:49;28.20;62.80
23669;DHT22;12011;47.422;15.018;2023-07-13T06:34:19;28.30;61.80
23669;DHT22;12011;47.422;15.018;2023-07-13T06:36:48;28.60;60.20
23669;DHT22;12011;47.422;15.018;2023-07-13T06:39:21;28.60;53.10
23669;DHT22;12011;47.422;15.018;2023-07-13T06:41:50;28.60;54.50
23669;DHT22;12011;47.422;15.018;2023-07-13T06:44:20;28.70;56.40
23669;DHT22;12011;47.422;15.018;2023-07-13T06:46:49;29.20;57.40
23669;DHT22;12011;47.422;15.018;2023-07-13T06:49:19;29.00;57.70
23669;DHT22;12011;47.422;15.018;2023-07-13T06:51:48;29.60;57.20
23669;DHT22;12011;47.422;15.018;2023-07-13T06:54:20;29.50;52.50
23669;DHT22;12011;47.422;15.018;2023-07-13T06:56:50;29.50;57.50
23669;DHT22;12011;47.422;15.018;2023-07-13T06:59:19;29.50;54.20
23669;DHT22;12011;47.422;15.018;2023-07-13T07:01:49;29.40;51.00
23669;DHT22;12011;47.422;15.018;2023-07-13T07:04:18;28.50;52.90
23669;DHT22;12011;47.422;15.018;2023-07-13T07:06:48;29.00;54.70
23669;DHT22;12011;47.422;15.018;2023-07-13T07:09:20;29.40;59.40
23669;DHT22;12011;47.422;15.018;2023-07-13T07:11:50;28.80;50.30
23669;DHT22;12011;47.422;15.018;2023-07-13T07:14:19;28.40;52.30
23669;DHT22;12011;47.422;15.018;2023-07-13T07:16:50;28.60;56.50
23669;DHT22;12011;47.422;15.018;2023-07-13T07:19:19;29.20;55.50
23669;DHT22;12011;47.422;15.018;2023-07-13T07:21:49;29.40;56.60
23669;DHT22;12011;47.422;15.018;2023-07-13T07:24:21;29.30;50.80
23669;DHT22;12011;47.422;15.018;2023-07-13T07:26:50;28.80;55.60
23669;DHT22;12011;47.422;15.018;2023-07-13T07:29:20;28.90;53.90
23669;DHT22;12011;47.422;15.018;2023-07-13T07:31:52;28.80;50.60
23669;DHT22;12011;47.422;15.018;2023-07-13T07:34:22;29.10;54.50
23669;DHT22;12011;47.422;15.018;2023-07-13T07:36:51;29.70;50.90
23669;DHT22;12011;47.422;15.018;2023-07-13T07:39:24;29.20;51.20
23669;DHT22;12011;47.422;15.018;2023-07-13T07:41:54;29.30;53.20
23669;DHT22;12011;47.422;15.018;2023-07-13T07:44:24;29.30;51.90
23669;DHT22;12011;47.422;15.018;2023-07-13T07:46:54;30.10;51.30
23669;DHT22;12011;47.422;15.018;2023-07-13T07:49:24;30.30;55.50
23669;DHT22;12011;47.422;15.018;2023-07-13T07:51:54;30.80;52.50
23669;DHT22;12011;47.422;15.018;2023-07-13T07:54:26;30.90;53.70
23669;DHT22;12011;47.422;15.018;2023-07-13T07:56:56;30.20;48.90
23669;DHT22;12011;47.422;15.018;2023-07-13T07:59:25;29.70;50.00
23669;DHT22;12011;47.422;15.018;2023-07-13T08:01:55;29.50;50.60
23669;DHT22;12011;47.422;15.018;2023-07-13T08:04:25;30.90;55.70
23669;DHT22;12011;47.422;15.018;2023-07-13T08:06:54;31.20;50.80
23669;DHT22;12011;47.422;15.018;2023-07-13T08:09:30;30.80;47.60
23669;DHT22;12011;47.422;15.018;2023-07-13T08:12:09;30.80;50.80
23669;DHT22;12011;47.422;15.018;2023-07-13T08:14:38;30.80;47.70
23669;DHT22;12011;47.422;15.018;2023-07-13T08:17:08;31.30;48.40
23669;DHT22;12011;47.422;15.018;2023-07-13T08:19:37;31.00;48.00
23669;DHT22;12011;47.422;15.018;2023-07-13T08:22:07;30.50;49.10
23669;DHT22;12011;47.422;15.018;2023-07-13T08:24:39;30.40;48.70
23669;DHT22;12011;47.422;15.018;2023-07-13T08:27:09;29.60;45.90
23669;DHT22;12011;47.422;15.018;2023-07-13T08:29:40;30.00;49.80
23669;DHT22;12011;47.422;15.018;2023-07-13T08:32:09;30.90;47.30
23669;DHT22;12011;47.422;15.018;2023-07-13T08:34:40;30.50;46.50
23669;DHT22;12011;47.422;15.018;2023-07-13T08:37:10;31.40;50.40
23669;DHT22;12011;47.422;15.018;2023-07-13T08:39:42;31.50;48.10
23669;DHT22;12011;47.422;15.018;2023-07-13T08:42:21;31.50;51.70
23669;DHT22;12011;47.422;15.018;2023-07-13T08:45:12;32.50;52.50
23669;DHT22;12011;47.422;15.018;2023-07-13T08:47:48;31.90;46.50
23669;DHT22;12011;47.422;15.018;2023-07-13T08:50:27;33.20;48.60
23669;DHT22;12011;47.422;15.018;2023-07-13T08:53:03;33.60;46.10
23669;DHT22;12011;47.422;15.018;2023-07-13T08:55:37;32.20;41.60
23669;DHT22;12011;47.422;15.018;2023-07-13T08:58:12;32.30;44.70
23669;DHT22;12011;47.422;15.018;2023-07-13T09:00:51;33.10;51.00
23669;DHT22;12011;47.422;15.018;2023-07-13T09:03:42;33.10;43.40
23669;DHT22;12011;47.422;15.018;2023-07-13T09:06:17;32.90;44.80
23669;DHT22;12011;47.422;15.018;2023-07-13T09:09:02;32.70;45.90
23669;DHT22;12011;47.422;15.018;2023-07-13T09:11:49;33.30;43.90
23669;DHT22;12011;47.422;15.018;2023-07-13T09:14:34;32.30;44.60
23669;DHT22;12011;47.422;15.018;2023-07-13T09:17:16;31.60;43.90
23669;DHT22;12011;47.422;15.018;2023-07-13T09:19:53;31.80;41.50
23669;DHT22;12011;47.422;15.018;2023-07-13T09:22:28;32.10;41.30
23669;DHT22;12011;47.422;15.018;2023-07-13T09:25:09;32.30;41.10
23669;DHT22;12011;47.422;15.018;2023-07-13T09:27:54;31.50;43.30
23669;DHT22;12011;47.422;15.018;2023-07-13T09:30:34;31.60;45.70
23669;DHT22;12011;47.422;15.018;2023-07-13T09:33:08;30.50;45.50
23669;DHT22;12011;47.422;15.018;2023-07-13T09:35:37;30.90;49.70
23669;DHT22;12011;47.422;15.018;2023-07-13T09:38:12;31.20;45.00
23669;DHT22;12011;47.422;15.018;2023-07-13T09:41:03;31.20;49.80
23669;DHT22;12011;47.422;15.018;2023-07-13T09:44:00;29.90;45.50
23669;DHT22;12011;47.422;15.018;2023-07-13T09:46:30;30.90;44.90
23669;DHT22;12011;47.422;15.018;2023-07-13T09:49:00;30.70;42.20
23669;DHT22;12011;47.422;15.018;2023-07-13T09:51:30;31.00;42.10
23669;DHT22;12011;47.422;15.018;2023-07-13T09:54:00;31.00;44.80
23669;DHT22;12011;47.422;15.018;2023-07-13T09:56:30;32.00;49.90
23669;DHT22;12011;47.422;15.018;2023-07-13T09:59:03;30.30;44.90
23669;DHT22;12011;47.422;15.018;2023-07-13T10:01:35;29.60;47.30
23669;DHT22;12011;47.422;15.018;2023-07-13T10:04:12;28.90;52.10
23669;DHT22;12011;47.422;15.018;2023-07-13T10:06:42;28.30;54.10
23669;DHT22;12011;47.422;15.018;2023-07-13T10:09:15;28.30;52.80
23669;DHT22;12011;47.422;15.018;2023-07-13T10:11:45;27.70;55.10
23669;DHT22;12011;47.422;15.018;2023-07-13T10:14:21;28.20;58.50
23669;DHT22;12011;47.422;15.018;2023-07-13T10:16:59;28.60;54.20
23669;DHT22;12011;47.422;15.018;2023-07-13T10:19:32;28.90;49.00
23669;DHT22;12011;47.422;15.018;2023-07-13T10:22:18;28.60;52.40
23669;DHT22;12011;47.422;15.018;2023-07-13T10:24:52;28.60;53.40
23669;DHT22;12011;47.422;15.018;2023-07-13T10:27:29;28.50;53.60
23669;DHT22;12011;47.422;15.018;2023-07-13T10:30:13;28.40;50.70
23669;DHT22;12011;47.422;15.018;2023-07-13T10:32:46;28.60;52.80
23669;DHT22;12011;47.422;15.018;2023-07-13T10:35:19;28.60;48.70
23669;DHT22;12011;47.422;15.018;2023-07-13T10:37:54;28.50;51.00
23669;DHT22;12011;47.422;15.018;2023-07-13T10:40:33;28.70;49.50
23669;DHT22;12011;47.422;15.018;2023-07-13T10:43:15;28.90;49.20
23669;DHT22;12011;47.422;15.018;2023-07-13T10:45:51;28.10;52.00
23669;DHT22;12011;47.422;15.018;2023-07-13T10:48:23;27.60;51.90
23669;DHT22;12011;47.422;15.018;2023-07-13T10:50:55;28.20;52.60
23669;DHT22;12011;47.422;15.018;2023-07-13T10:53:29;28.30;55.80
23669;DHT22;12011;47.422;15.018;2023-07-13T10:56:02;28.20;49.00
23669;DHT22;12011;47.422;15.018;2023-07-13T10:58:36;27.60;56.70
23669;DHT22;12011;47.422;15.018;2023-07-13T11:01:13;28.40;56.00
23669;DHT22;12011;47.422;15.018;2023-07-13T11:03:50;28.70;52.60
23669;DHT22;12011;47.422;15.018;2023-07-13T11:06:34;29.40;55.50
23669;DHT22;12011;47.422;15.018;2023-07-13T11:12:25;30.50;52.50
23669;DHT22;12011;47.422;15.018;2023-07-13T11:15:12;29.60;48.20
23669;DHT22;12011;47.422;15.018;2023-07-13T11:17:54;29.30;47.50
23669;DHT22;12011;47.422;15.018;2023-07-13T11:20:38;29.60;52.80
23669;DHT22;12011;47.422;15.018;2023-07-13T11:23:27;29.70;48.30
23669;DHT22;12011;47.422;15.018;2023-07-13T11:26:00;29.80;48.00
23669;DHT22;12011;47.422;15.018;2023-07-13T11:28:32;29.60;48.70
23669;DHT22;12011;47.422;15.018;2023-07-13T11:31:15;29.70;48.30
23669;DHT22;12011;47.422;15.018;2023-07-13T11:33:56;29.90;50.40
23669;DHT22;12011;47.422;15.018;2023-07-13T11:36:36;29.80;48.90
23669;DHT22;12011;47.422;15.018;2023-07-13T11:39:18;30.40;51.60
23669;DHT22;12011;47.422;15.018;2023-07-13T11:41:53;30.80;48.70
23669;DHT22;12011;47.422;15.018;2023-07-13T11:44:26;31.10;46.60
23669;DHT22;12011;47.422;15.018;2023-07-13T11:46:58;30.70;42.50
23669;DHT22;12011;47.422;15.018;2023-07-13T11:49:41;30.70;45.60
23669;DHT22;12011;47.422;15.018;2023-07-13T11:52:17;30.00;46.00
23669;DHT22;12011;47.422;15.018;2023-07-13T11:54:49;28.90;48.10
23669;DHT22;12011;47.422;15.018;2023-07-13T11:57:27;28.10;50.00
23669;DHT22;12011;47.422;15.018;2023-07-13T12:00:03;27.00;50.70
23669;DHT22;12011;47.422;15.018;2023-07-13T12:02:43;26.60;52.00
23669;DHT22;12011;47.422;15.018;2023-07-13T12:05:19;27.00;52.30
23669;DHT22;12011;47.422;15.018;2023-07-13T12:07:50;26.90;54.30
23669;DHT22;12011;47.422;15.018;2023-07-13T12:10:23;26.20;55.50
23669;DHT22;12011;47.422;15.018;2023-07-13T12:12:57;25.50;54.80
23669;DHT22;12011;47.422;15.018;2023-07-13T12:15:36;25.00;61.50
23669;DHT22;12011;47.422;15.018;2023-07-13T12:18:14;24.70;58.10
23669;DHT22;12011;47.422;15.018;2023-07-13T12:20:49;24.70;61.50
23669;DHT22;12011;47.422;15.018;2023-07-13T12:23:24;24.40;61.80
23669;DHT22;12011;47.422;15.018;2023-07-13T12:25:55;24.20;64.10
23669;DHT22;12011;47.422;15.018;2023-07-13T12:28:33;24.20;61.80
23669;DHT22;12011;47.422;15.018;2023-07-13T12:31:08;24.00;65.40
23669;DHT22;12011;47.422;15.018;2023-07-13T12:33:57;23.70;64.90
23669;DHT22;12011;47.422;15.018;2023-07-13T12:36:34;23.60;66.70
23669;DHT22;12011;47.422;15.018;2023-07-13T12:39:14;23.30;82.50
23669;DHT22;12011;47.422;15.018;2023-07-13T12:41:52;23.10;77.50
23669;DHT22;12011;47.422;15.018;2023-07-13T12:44:29;22.70;77.40
23669;DHT22;12011;47.422;15.018;2023-07-13T12:47:11;22.40;78.70
23669;DHT22;12011;47.422;15.018;2023-07-13T12:49:47;22.40;81.80
23669;DHT22;12011;47.422;15.018;2023-07-13T12:52:36;22.50;81.40
23669;DHT22;12011;47.422;15.018;2023-07-13T12:55:14;22.40;87.50
23669;DHT22;12011;47.422;15.018;2023-07-13T12:57:50;22.60;85.10
23669;DHT22;12011;47.422;15.018;2023-07-13T13:00:23;22.40;85.60
23669;DHT22;12011;47.422;15.018;2023-07-13T13:02:56;22.30;89.90
23669;DHT22;12011;47.422;15.018;2023-07-13T13:05:29;21.90;92.40
23669;DHT22;12011;47.422;15.018;2023-07-13T13:08:04;21.70;92.50
23669;DHT22;12011;47.422;15.018;2023-07-13T13:10:33;21.70;96.80
23669;DHT22;12011;47.422;15.018;2023-07-13T13:13:03;21.60;94.60
23669;DHT22;12011;47.422;15.018;2023-07-13T13:15:35;21.60;99.90
23669;DHT22;12011;47.422;15.018;2023-07-13T13:18:15;21.30;96.80
23669;DHT22;12011;47.422;15.018;2023-07-13T13:20:46;20.90;99.90
23669;DHT22;12011;47.422;15.018;2023-07-13T13:23:20;20.80;99.90
23669;DHT22;12011;47.422;15.018;2023-07-13T13:25:51;20.70;99.90
23669;DHT22;12011;47.422;15.018;2023-07-13T13:28:21;20.30;99.90
23669;DHT22;12011;47.422;15.018;2023-07-13T13:30:53;20.10;99.90
23669;DHT22;12011;47.422;15.018;2023-07-13T13:33:23;20.10;99.90
23669;DHT22;12011;47.422;15.018;2023-07-13T13:35:53;20.40;99.90
23669;DHT22;12011;47.422;15.018;2023-07-13T13:38:27;20.70;99.90
23669;DHT22;12011;47.422;15.018;2023-07-13T13:40:57;21.00;99.90
23669;DHT22;12011;47.422;15.018;2023-07-13T13:43:27;20.80;99.90
23669;DHT22;12011;47.422;15.018;2023-07-13T13:45:59;20.80;99.90
23669;DHT22;12011;47.422;15.018;2023-07-13T13:48:32;20.80;99.90
23669;DHT22;12011;47.422;15.018;2023-07-13T13:51:14;21.00;99.90
23669;DHT22;12011;47.422;15.018;2023-07-13T13:53:48;20.80;99.90
23669;DHT22;12011;47.422;15.018;2023-07-13T13:56:20;20.90;99.90
23669;DHT22;12011;47.422;15.018;2023-07-13T13:58:50;20.70;99.90
23669;DHT22;12011;47.422;15.018;2023-07-13T14:01:21;20.50;99.90
23669;DHT22;12011;47.422;15.018;2023-07-13T14:03:51;20.60;99.90
23669;DHT22;12011;47.422;15.018;2023-07-13T14:06:21;20.40;99.90
23669;DHT22;12011;47.422;15.018;2023-07-13T14:08:59;20.30;99.90
23669;DHT22;12011;47.422;15.018;2023-07-13T14:11:31;20.20;99.90
23669;DHT22;12011;47.422;15.018;2023-07-13T14:14:01;20.10;99.90
23669;DHT22;12011;47.422;15.018;2023-07-13T14:16:33;20.00;99.90
23669;DHT22;12011;47.422;15.018;2023-07-13T14:19:03;20.00;99.90
23669;DHT22;12011;47.422;15.018;2023-07-13T14:21:32;19.90;99.90
23669;DHT22;12011;47.422;15.018;2023-07-13T14:24:05;19.70;99.90
23669;DHT22;12011;47.422;15.018;2023-07-13T14:26:40;19.60;99.90
23669;DHT22;12011;47.422;15.018;2023-07-13T14:29:15;19.50;99.90
23669;DHT22;12011;47.422;15.018;2023-07-13T14:31:48;19.50;99.90
23669;DHT22;12011;47.422;15.018;2023-07-13T14:34:17;19.40;99.90
23669;DHT22;12011;47.422;15.018;2023-07-13T14:36:50;19.30;99.90
23669;DHT22;12011;47.422;15.018;2023-07-13T14:39:25;19.30;99.90
23669;DHT22;12011;47.422;15.018;2023-07-13T14:41:56;19.20;99.90
23669;DHT22;12011;47.422;15.018;2023-07-13T14:44:28;19.10;99.90
23669;DHT22;12011;47.422;15.018;2023-07-13T14:47:01;19.00;99.90
23669;DHT22;12011;47.422;15.018;2023-07-13T14:49:36;18.80;99.90
23669;DHT22;12011;47.422;15.018;2023-07-13T14:52:12;18.80;99.90
23669;DHT22;12011;47.422;15.018;2023-07-13T14:54:45;18.60;99.90
23669;DHT22;12011;47.422;15.018;2023-07-13T14:57:18;18.40;99.90
23669;DHT22;12011;47.422;15.018;2023-07-13T14:59:49;18.30;99.90
23669;DHT22;12011;47.422;15.018;2023-07-13T15:02:30;18.30;99.90
23669;DHT22;12011;47.422;15.018;2023-07-13T15:05:05;18.10;99.90
23669;DHT22;12011;47.422;15.018;2023-07-13T15:07:37;17.80;99.90
23669;DHT22;12011;47.422;15.018;2023-07-13T15:10:16;17.70;99.90
23669;DHT22;12011;47.422;15.018;2023-07-13T15:12:48;17.50;99.90
23669;DHT22;12011;47.422;15.018;2023-07-13T15:15:20;17.40;99.90
23669;DHT22;12011;47.422;15.018;2023-07-13T15:17:52;17.20;99.90
23669;DHT22;12011;47.422;15.018;2023-07-13T15:20:26;17.10;99.90
23669;DHT22;12011;47.422;15.018;2023-07-13T15:23:02;17.10;99.90
23669;DHT22;12011;47.422;15.018;2023-07-13T15:25:34;17.00;99.90
23669;DHT22;12011;47.422;15.018;2023-07-13T15:28:05;17.00;99.90
23669;DHT22;12011;47.422;15.018;2023-07-13T15:30:40;16.90;99.90
23669;DHT22;12011;47.422;15.018;2023-07-13T15:33:15;16.80;99.90
23669;DHT22;12011;47.422;15.018;2023-07-13T15:35:47;16.70;99.90
23669;DHT22;12011;47.422;15.018;2023-07-13T15:38:20;16.70;99.90
23669;DHT22;12011;47.422;15.018;2023-07-13T15:40:55;16.70;99.90
23669;DHT22;12011;47.422;15.018;2023-07-13T15:43:26;16.70;99.90
23669;DHT22;12011;47.422;15.018;2023-07-13T15:45:56;16.60;99.90
23669;DHT22;12011;47.422;15.018;2023-07-13T15:48:26;16.60;99.90
23669;DHT22;12011;47.422;15.018;2023-07-13T15:51:01;16.60;99.90
23669;DHT22;12011;47.422;15.018;2023-07-13T15:53:34;16.60;99.90
23669;DHT22;12011;47.422;15.018;2023-07-13T15:56:18;16.70;99.90
23669;DHT22;12011;47.422;15.018;2023-07-13T15:58:49;16.70;99.90